Neches, TX (75779)

2:47 PM CDT on May 24, 2017 (GMT -0500)
Neches/Todd City | | Change Station
Active Advisory: Flood Warning

Elev 420 ft 31.91 °N, 95.48 °W | Updated 10 seconds ago

Partly Cloudy
Partly Cloudy
79.0 °F
Feels Like 79 °F
N
6.0
Wind Variable Wind from SW

Today
High -- | Low -- °F
--% Chance of Precip.
Yesterday
High -- | Low -- °F
Precip. -- in
Pressure 29.82 in
Visibility 10.0 miles
Clouds Scattered Clouds 6000 ft
Scattered Clouds 7500 ft
Heat Index 79 °F
Dew Point 53 °F
Humidity 40%
Rainfall 0.00 in
Snow Depth Not available.
6:19 AM 8:18 PM
Waning Crescent, 2% visible
METAR KPSN 241935Z AUTO 30010G18KT 10SM SCT060 SCT075 23/10 A2982 RMK AO2 T02340099
Pressure 29.82 in
Visibility 10.0 miles
Clouds Scattered Clouds 6000 ft
Scattered Clouds 7500 ft
Heat Index 79 °F
Dew Point 53 °F
Humidity 40%
Rainfall 0.00 in
Snow Depth Not available.
6:19 AM 8:18 PM
Waning Crescent, 2% visible
METAR KPSN 241935Z AUTO 30010G18KT 10SM SCT060 SCT075 23/10 A2982 RMK AO2 T02340099

Get Your Daily Forecast Email!

Thanks for signing up!

Be on the lookout for a verification email in your inbox.

You'll start receiving severe weather alerts in your inbox..

×

10-Day Weather Forecast

Almanac

Astronomy

May. 24, 2017 Rise Set
Actual Time
Civil Twilight
Nautical Twilight
Astronomical Twilight
Moon
Length of Visible Light
Length of Day
Tomorrow will be .
, % of the Moon is Illuminated

Today's Extremes

State Highs State Lows

Community

WunderPhotos

Category 6

Welcome to Category 6. This is the collective home for Weather Underground's featured writeups by Dr. Jeff Masters (right), Bob Henson (left), Chris Burt, and other regular contributors.

Nearby

Air Quality

  Air Quality AQ Index Pollutant
Not available.

Snow Depth

Station Depth Elevation

Earthquake Activity

City Distance Mag. Time & Date
Minimum magnitude displayed is 2.5.

Coastal Water Temperatures

Place Temperature

Stations

Nearby Weather Stations

Station Location Temp. Windchill Dew Point Humidity Wind Precip. Elev Updated Type
                   

Watches & Warnings

Flood Warning
Issued: 11:08 AM CDT May. 24, 2017 – National Weather Service

... The Flood Warning extended until Monday evening... the Flood
Warning continues for
the Neches River near Alto.
* Until Monday evening... or until the warning is cancelled.
* At 10:15 am Wednesday the stage was 17.1 feet.
* Minor flooding is occurring and minor flooding is forecast.
* Flood stage is 16.0 feet.
* Forecast... the river will continue rising to near 17.3 feet by
after midnight tomorrow. The river will fall below flood stage
Sunday morning.
* Impact... at 18.0 feet... expect moderate to severe flooding of the
heavily wooded floodplain. Boat ramps and picnic areas will be
completely inundated.


Lat... Lon 3167 9524 3152 9504 3138 9492 3133 9500 3166 9537